createdAt,value
2018-01-21T00:00:28.341Z,99.99
2018-01-21T00:01:28.325Z,99.99
2018-01-21T00:02:28.310Z,99.99
2018-01-21T00:03:28.295Z,99.99
2018-01-21T00:04:28.281Z,99.99
2018-01-21T00:05:28.264Z,99.99
2018-01-21T00:06:28.251Z,99.99
2018-01-21T00:07:28.235Z,99.99
2018-01-21T00:08:28.221Z,99.99
2018-01-21T00:09:28.205Z,99.99
2018-01-21T00:10:28.190Z,99.99
2018-01-21T00:11:28.175Z,99.99
2018-01-21T00:12:28.160Z,99.99
2018-01-21T00:13:28.146Z,99.99
2018-01-21T00:14:28.130Z,99.99
2018-01-21T00:15:28.115Z,99.99
2018-01-21T00:16:28.100Z,99.99
2018-01-21T00:17:28.085Z,99.99
2018-01-21T00:18:28.070Z,99.99
2018-01-21T00:19:28.056Z,99.99
2018-01-21T00:20:28.040Z,99.99
2018-01-21T00:21:28.027Z,99.99
2018-01-21T00:22:28.010Z,99.99
2018-01-21T00:23:27.996Z,99.99
2018-01-21T00:24:27.988Z,99.99
2018-01-21T00:25:27.964Z,99.99
2018-01-21T00:26:27.949Z,99.99
2018-01-21T00:27:27.935Z,99.99
2018-01-21T00:28:27.919Z,99.99
2018-01-21T00:29:27.903Z,99.99
2018-01-21T00:30:27.890Z,99.99
2018-01-21T00:31:27.874Z,99.99
2018-01-21T00:32:27.860Z,99.99
2018-01-21T00:33:27.844Z,99.99
2018-01-21T00:34:27.828Z,99.99
2018-01-21T00:35:27.814Z,99.99
2018-01-21T00:36:27.799Z,99.99
2018-01-21T00:37:27.784Z,99.99
2018-01-21T00:38:27.770Z,99.99
2018-01-21T00:39:27.754Z,99.99
2018-01-21T00:40:27.740Z,99.99
2018-01-21T00:41:27.724Z,99.99
2018-01-21T00:42:27.710Z,99.99
2018-01-21T00:43:27.694Z,99.99
2018-01-21T00:44:27.679Z,99.99
2018-01-21T00:45:27.663Z,99.99
2018-01-21T00:46:27.649Z,99.99
2018-01-21T00:47:27.634Z,99.99
2018-01-21T00:48:27.620Z,99.99
2018-01-21T00:49:27.606Z,99.99
2018-01-21T00:50:27.590Z,99.99
2018-01-21T00:51:27.574Z,99.99
2018-01-21T00:52:27.560Z,99.99
2018-01-21T00:53:27.544Z,99.99
2018-01-21T00:54:27.532Z,99.99
2018-01-21T00:55:27.516Z,99.99
2018-01-21T00:56:27.500Z,99.99
2018-01-21T00:57:27.484Z,99.99
2018-01-21T00:58:27.469Z,99.99
2018-01-21T00:59:27.455Z,99.99
2018-01-21T01:00:27.441Z,99.99
2018-01-21T01:01:27.424Z,99.99
2018-01-21T01:02:27.409Z,99.99
2018-01-21T01:03:27.395Z,99.99
2018-01-21T01:04:27.380Z,99.99
2018-01-21T01:05:27.363Z,99.99
2018-01-21T01:06:27.348Z,99.99
2018-01-21T01:07:27.336Z,99.99
2018-01-21T01:08:27.319Z,99.99
2018-01-21T01:09:27.303Z,99.99
2018-01-21T01:10:27.289Z,99.99
2018-01-21T01:11:27.282Z,99.99
2018-01-21T01:12:27.259Z,99.99
2018-01-21T01:13:27.244Z,99.99
2018-01-21T01:14:27.230Z,99.99
2018-01-21T01:15:27.213Z,99.99
2018-01-21T01:16:27.198Z,99.99
2018-01-21T01:17:27.183Z,99.99
2018-01-21T01:18:27.168Z,99.99
2018-01-21T01:19:27.155Z,99.99
2018-01-21T01:20:27.139Z,99.99
2018-01-21T01:21:27.121Z,99.99
2018-01-21T01:22:27.107Z,99.99
2018-01-21T01:23:27.092Z,99.99
2018-01-21T01:24:27.077Z,99.99
2018-01-21T01:25:27.062Z,99.99
2018-01-21T01:26:27.048Z,99.99
2018-01-21T01:27:27.034Z,99.99
2018-01-21T01:28:27.019Z,99.99
2018-01-21T01:29:27.002Z,99.99
2018-01-21T01:30:26.987Z,99.99
2018-01-21T01:31:26.971Z,99.99
2018-01-21T01:32:26.959Z,99.99
2018-01-21T01:33:26.942Z,99.99
2018-01-21T01:34:26.927Z,99.99
2018-01-21T01:35:26.913Z,99.99
2018-01-21T01:36:26.897Z,99.99
2018-01-21T01:37:26.882Z,99.99
2018-01-21T01:38:26.912Z,99.99
2018-01-21T01:39:26.851Z,99.99
2018-01-21T01:40:26.844Z,99.99
2018-01-21T01:41:26.821Z,99.99
2018-01-21T01:42:26.806Z,99.99
2018-01-21T01:43:26.791Z,99.99
2018-01-21T01:44:26.776Z,99.99
2018-01-21T01:45:26.761Z,99.99
2018-01-21T01:46:26.746Z,99.99
2018-01-21T01:47:26.731Z,99.99
2018-01-21T01:48:26.716Z,99.99
2018-01-21T01:49:26.700Z,99.99
2018-01-21T01:50:26.686Z,99.99
2018-01-21T01:51:26.671Z,99.99
2018-01-21T01:52:26.657Z,99.99
2018-01-21T01:53:26.641Z,99.99
2018-01-21T01:54:26.626Z,99.99
2018-01-21T01:55:26.612Z,99.99
2018-01-21T01:56:26.596Z,99.99
2018-01-21T01:57:26.580Z,99.99
2018-01-21T01:58:26.565Z,99.99
2018-01-21T01:59:26.557Z,99.99
2018-01-21T02:00:26.535Z,99.99
2018-01-21T02:01:26.520Z,99.99
2018-01-21T02:02:26.508Z,99.99
2018-01-21T02:03:26.490Z,99.99
2018-01-21T02:04:26.479Z,99.99
2018-01-21T02:05:26.460Z,99.99
2018-01-21T02:06:26.445Z,99.99
2018-01-21T02:07:26.434Z,99.99
2018-01-21T02:08:26.417Z,99.99
2018-01-21T02:09:26.401Z,99.99
2018-01-21T02:10:26.386Z,99.99
2018-01-21T02:11:26.371Z,99.99
2018-01-21T02:12:26.357Z,99.99
2018-01-21T02:13:26.341Z,99.99
2018-01-21T02:14:26.327Z,99.99
2018-01-21T02:15:26.312Z,99.99
2018-01-21T02:16:26.297Z,99.99
2018-01-21T02:17:26.282Z,99.99
2018-01-21T02:18:26.271Z,99.99
2018-01-21T02:19:26.266Z,99.99
2018-01-21T02:20:26.239Z,99.99
2018-01-21T02:21:26.222Z,99.99
2018-01-21T02:22:26.207Z,99.99
2018-01-21T02:23:26.193Z,99.99
2018-01-21T02:24:26.178Z,99.99
2018-01-21T02:25:26.162Z,99.99
2018-01-21T02:26:26.147Z,99.99
2018-01-21T02:27:26.132Z,99.99
2018-01-21T02:28:26.118Z,99.99
2018-01-21T02:29:26.103Z,99.99
2018-01-21T02:30:26.087Z,99.99
2018-01-21T02:31:26.072Z,99.99
2018-01-21T02:32:26.058Z,99.99
2018-01-21T02:33:26.043Z,99.99
2018-01-21T02:34:26.028Z,99.99
2018-01-21T02:35:26.014Z,99.99
2018-01-21T02:36:25.998Z,99.99
2018-01-21T02:37:25.983Z,99.99
2018-01-21T02:38:25.968Z,99.99
2018-01-21T02:39:25.954Z,99.99
2018-01-21T02:40:25.938Z,99.99
2018-01-21T02:41:25.923Z,99.99
2018-01-21T02:42:25.908Z,99.99
2018-01-21T02:43:25.894Z,99.99
2018-01-21T02:44:25.879Z,99.99
2018-01-21T02:45:25.865Z,99.99
2018-01-21T02:46:25.849Z,99.99
2018-01-21T02:47:25.833Z,99.99
2018-01-21T02:48:25.819Z,99.99
2018-01-21T02:49:25.803Z,99.99
2018-01-21T02:50:25.788Z,99.99
2018-01-21T02:51:25.774Z,99.99
2018-01-21T02:52:25.759Z,99.99
2018-01-21T02:53:25.744Z,99.99
2018-01-21T02:54:25.729Z,99.99
2018-01-21T02:55:25.716Z,99.99
2018-01-21T02:56:25.700Z,99.99
2018-01-21T02:57:25.684Z,99.99
2018-01-21T02:58:25.669Z,99.99
2018-01-21T02:59:25.655Z,99.99
2018-01-21T03:00:25.640Z,99.99
2018-01-21T03:01:25.624Z,99.99
2018-01-21T03:02:25.610Z,99.99
2018-01-21T03:03:25.596Z,99.99
2018-01-21T03:04:25.580Z,99.99
2018-01-21T03:05:25.569Z,99.99
2018-01-21T03:06:25.551Z,99.99
2018-01-21T03:07:25.536Z,99.99
2018-01-21T03:08:25.530Z,99.99
2018-01-21T03:09:25.506Z,99.99
2018-01-21T03:10:25.491Z,99.99
2018-01-21T03:11:25.476Z,99.99
2018-01-21T03:12:25.462Z,99.99
2018-01-21T03:13:25.448Z,99.99
2018-01-21T03:14:25.432Z,99.99
2018-01-21T03:15:25.417Z,99.99
2018-01-21T03:16:25.403Z,99.99
2018-01-21T03:17:25.387Z,99.99
2018-01-21T03:18:25.373Z,99.99
2018-01-21T03:19:25.362Z,99.99
2018-01-21T03:20:25.343Z,99.99
2018-01-21T03:21:25.329Z,99.99
2018-01-21T03:22:25.314Z,99.99
2018-01-21T03:23:25.299Z,99.99
2018-01-21T03:24:25.284Z,99.99
2018-01-21T03:25:25.269Z,99.99
2018-01-21T03:26:25.255Z,99.99
2018-01-21T03:27:25.241Z,99.99
2018-01-21T03:28:25.226Z,99.99
2018-01-21T03:29:25.210Z,99.99
2018-01-21T03:30:25.197Z,99.99
2018-01-21T03:31:25.183Z,99.99
2018-01-21T03:32:25.169Z,99.99
2018-01-21T03:33:25.154Z,99.99
2018-01-21T03:34:25.137Z,99.99
2018-01-21T03:35:25.123Z,99.99
2018-01-21T03:36:25.110Z,99.99
2018-01-21T03:37:25.093Z,99.99
2018-01-21T03:38:25.080Z,99.99
2018-01-21T03:39:25.064Z,99.99
2018-01-21T03:40:25.050Z,99.99
2018-01-21T03:41:25.034Z,99.99
2018-01-21T03:42:25.020Z,99.99
2018-01-21T03:43:25.006Z,99.99
2018-01-21T03:44:24.992Z,99.99
2018-01-21T03:45:24.976Z,99.99
2018-01-21T03:46:24.962Z,99.99
2018-01-21T03:47:24.948Z,99.99
2018-01-21T03:48:24.934Z,99.99
2018-01-21T03:49:24.917Z,99.99
2018-01-21T03:50:24.911Z,99.99
2018-01-21T03:51:24.889Z,99.99
2018-01-21T03:52:24.874Z,99.99
2018-01-21T03:53:24.861Z,99.99
2018-01-21T03:54:24.851Z,99.99
2018-01-21T03:55:24.830Z,99.99
2018-01-21T03:56:24.816Z,99.99
2018-01-21T03:57:24.800Z,99.99
2018-01-21T03:58:24.785Z,99.99
2018-01-21T03:59:24.781Z,99.99
2018-01-21T04:00:24.757Z,99.99
2018-01-21T04:01:24.741Z,99.99
2018-01-21T04:02:24.729Z,99.99
2018-01-21T04:03:24.712Z,99.99
2018-01-21T04:04:24.698Z,99.99
2018-01-21T04:05:24.682Z,99.99
2018-01-21T04:06:24.702Z,99.99
2018-01-21T04:07:24.653Z,99.99
2018-01-21T04:08:24.638Z,99.99
2018-01-21T04:09:24.623Z,99.99
2018-01-21T04:10:24.614Z,99.99
2018-01-21T04:11:24.593Z,99.99
2018-01-21T04:12:24.581Z,99.99
2018-01-21T04:13:24.564Z,99.99
2018-01-21T04:14:24.548Z,99.99
2018-01-21T04:15:24.537Z,99.99
2018-01-21T04:16:24.520Z,99.99
2018-01-21T04:17:24.504Z,99.99
2018-01-21T04:18:24.491Z,99.99
2018-01-21T04:19:24.474Z,99.99
2018-01-21T04:20:24.461Z,99.99
2018-01-21T04:21:24.445Z,99.99
2018-01-21T04:22:24.430Z,99.99
2018-01-21T04:23:24.415Z,99.99
2018-01-21T04:24:24.399Z,99.99
2018-01-21T04:25:24.385Z,99.99
2018-01-21T04:26:24.370Z,99.99
2018-01-21T04:27:24.358Z,99.99
2018-01-21T04:28:24.341Z,99.99
2018-01-21T04:29:24.324Z,99.99
2018-01-21T04:30:24.312Z,99.99
2018-01-21T04:31:24.296Z,99.99
2018-01-21T04:32:24.281Z,99.99
2018-01-21T04:33:24.265Z,99.99
2018-01-21T04:34:24.250Z,99.99
2018-01-21T04:35:24.236Z,99.99
2018-01-21T04:36:24.221Z,99.99
2018-01-21T04:37:24.208Z,99.99
2018-01-21T04:38:24.190Z,99.99
2018-01-21T04:39:24.175Z,99.99
2018-01-21T04:40:24.162Z,99.99
2018-01-21T04:41:24.145Z,99.99
2018-01-21T04:42:24.137Z,99.99
2018-01-21T04:43:24.115Z,99.99
2018-01-21T04:44:24.101Z,99.99
2018-01-21T04:45:24.090Z,99.99
2018-01-21T04:46:24.070Z,99.99
2018-01-21T04:47:24.055Z,99.99
2018-01-21T04:48:24.040Z,99.99
2018-01-21T04:49:24.026Z,99.99
2018-01-21T04:50:24.009Z,99.99
2018-01-21T04:51:24.001Z,99.99
2018-01-21T04:52:23.981Z,99.99
2018-01-21T04:53:23.965Z,99.99
2018-01-21T04:54:23.949Z,99.99
2018-01-21T04:55:23.934Z,99.99
2018-01-21T04:56:23.920Z,99.99
2018-01-21T04:57:23.903Z,99.99
2018-01-21T04:58:23.888Z,99.99
2018-01-21T04:59:23.872Z,99.99
2018-01-21T05:00:23.858Z,99.99
2018-01-21T05:01:23.842Z,99.99
2018-01-21T05:02:23.828Z,99.99
2018-01-21T05:03:23.811Z,99.99
2018-01-21T05:04:23.796Z,99.99
2018-01-21T05:05:23.786Z,99.99
2018-01-21T05:06:23.765Z,99.99
2018-01-21T05:07:23.749Z,99.99
2018-01-21T05:08:23.736Z,99.99
2018-01-21T05:09:23.719Z,99.99
2018-01-21T05:10:23.711Z,99.99
2018-01-21T05:11:23.691Z,99.99
2018-01-21T05:12:23.674Z,99.99
2018-01-21T05:13:23.657Z,99.99
2018-01-21T05:14:23.642Z,99.99
2018-01-21T05:15:23.627Z,99.99
2018-01-21T05:16:23.612Z,99.99
2018-01-21T05:17:23.596Z,99.99
2018-01-21T05:18:23.580Z,99.99
2018-01-21T05:19:23.565Z,99.99
2018-01-21T05:20:23.549Z,99.99
2018-01-21T05:21:23.534Z,99.99
2018-01-21T05:22:23.518Z,99.99
2018-01-21T05:23:23.503Z,99.99
2018-01-21T05:24:23.488Z,99.99
2018-01-21T05:25:23.472Z,99.99
2018-01-21T05:26:23.457Z,99.99
2018-01-21T05:27:23.442Z,99.99
2018-01-21T05:28:23.426Z,99.99
2018-01-21T05:29:23.411Z,99.99
2018-01-21T05:30:23.396Z,99.99
2018-01-21T05:31:23.381Z,99.99
2018-01-21T05:32:23.366Z,99.99
2018-01-21T05:33:23.350Z,99.99
2018-01-21T05:34:23.335Z,99.99
2018-01-21T05:35:23.318Z,99.99
2018-01-21T05:36:23.304Z,99.99
2018-01-21T05:37:23.288Z,99.99
2018-01-21T05:38:23.273Z,99.99
2018-01-21T05:39:23.257Z,99.99
2018-01-21T05:40:23.241Z,99.99
2018-01-21T05:41:23.239Z,99.99
2018-01-21T05:42:23.211Z,99.99
2018-01-21T05:43:23.195Z,99.99
2018-01-21T05:44:23.179Z,99.99
2018-01-21T05:45:23.163Z,99.99
2018-01-21T05:46:23.148Z,99.99
2018-01-21T05:47:23.132Z,99.99
2018-01-21T05:48:23.118Z,99.99
2018-01-21T05:49:23.102Z,99.99
2018-01-21T05:50:23.087Z,99.99
2018-01-21T05:51:23.071Z,99.99
2018-01-21T05:52:23.056Z,99.99
2018-01-21T05:53:23.039Z,99.99
2018-01-21T05:54:23.024Z,99.99
2018-01-21T05:55:23.009Z,99.99
2018-01-21T05:56:22.994Z,99.99
2018-01-21T05:57:22.979Z,99.99
2018-01-21T05:58:22.962Z,99.99
2018-01-21T05:59:22.948Z,99.99
2018-01-21T06:00:22.932Z,99.99
2018-01-21T06:01:22.915Z,99.99
2018-01-21T06:02:22.899Z,99.99
2018-01-21T06:03:22.884Z,99.99
2018-01-21T06:04:22.869Z,99.99
2018-01-21T06:05:22.854Z,99.99
2018-01-21T06:06:22.838Z,99.99
2018-01-21T06:07:22.822Z,99.99
2018-01-21T06:08:22.807Z,99.99
2018-01-21T06:09:22.792Z,99.99
2018-01-21T06:10:22.776Z,99.99
2018-01-21T06:11:22.761Z,99.99
2018-01-21T06:12:22.746Z,99.99
2018-01-21T06:13:22.728Z,99.99
2018-01-21T06:14:22.715Z,99.99
2018-01-21T06:15:22.699Z,99.99
2018-01-21T06:16:22.686Z,99.99
2018-01-21T06:17:22.667Z,99.99
2018-01-21T06:18:22.651Z,99.99
2018-01-21T06:19:22.636Z,99.99
2018-01-21T06:20:22.622Z,99.99
2018-01-21T06:21:22.605Z,99.99
2018-01-21T06:22:22.590Z,99.99
2018-01-21T06:23:22.574Z,99.99
2018-01-21T06:24:22.558Z,99.99
2018-01-21T06:25:22.541Z,99.99
2018-01-21T06:26:22.527Z,99.99
2018-01-21T06:27:22.511Z,99.99
2018-01-21T06:28:22.496Z,99.99
2018-01-21T06:29:22.480Z,99.99
2018-01-21T06:30:22.464Z,99.99
2018-01-21T06:31:22.452Z,99.99
2018-01-21T06:32:22.459Z,99.99
2018-01-21T06:33:22.418Z,99.99
2018-01-21T06:34:22.403Z,99.99
2018-01-21T06:35:22.388Z,99.99
2018-01-21T06:36:22.373Z,99.99
2018-01-21T06:37:22.357Z,99.99
2018-01-21T06:38:22.340Z,99.99
2018-01-21T06:39:22.325Z,99.99
2018-01-21T06:40:22.309Z,99.99
2018-01-21T06:41:22.299Z,99.99
2018-01-21T06:42:22.279Z,99.99
2018-01-21T06:43:22.264Z,99.99
2018-01-21T06:44:22.249Z,99.99
2018-01-21T06:45:22.232Z,99.99
2018-01-21T06:46:22.216Z,99.99
2018-01-21T06:47:22.202Z,99.99
2018-01-21T06:48:22.185Z,99.99
2018-01-21T06:49:22.170Z,99.99
2018-01-21T06:50:22.154Z,99.99
2018-01-21T06:51:22.138Z,99.99
2018-01-21T06:52:22.125Z,99.99
2018-01-21T06:53:22.107Z,99.99
2018-01-21T06:54:22.092Z,99.99
2018-01-21T06:55:22.081Z,99.99
2018-01-21T06:56:22.062Z,99.99
2018-01-21T06:57:22.046Z,99.99
2018-01-21T06:58:22.030Z,99.99
2018-01-21T06:59:22.015Z,99.99
2018-01-21T07:00:21.999Z,99.99
2018-01-21T07:01:21.983Z,99.99
2018-01-21T07:02:21.969Z,99.99
2018-01-21T07:03:21.954Z,99.99
2018-01-21T07:04:21.938Z,99.99
2018-01-21T07:05:21.921Z,99.99
2018-01-21T07:06:21.912Z,99.99
2018-01-21T07:07:21.891Z,99.99
2018-01-21T07:08:21.875Z,99.99
2018-01-21T07:09:21.859Z,99.99
2018-01-21T07:10:21.843Z,99.99
2018-01-21T07:11:21.828Z,99.99
2018-01-21T07:12:21.813Z,99.99
2018-01-21T07:13:21.800Z,99.99
2018-01-21T07:14:21.781Z,99.99
2018-01-21T07:15:21.769Z,99.99
2018-01-21T07:16:21.757Z,99.99
2018-01-21T07:17:21.735Z,99.99
2018-01-21T07:18:21.718Z,99.99
2018-01-21T07:19:21.704Z,99.99
2018-01-21T07:20:21.688Z,99.99
2018-01-21T07:21:21.670Z,99.99
2018-01-21T07:22:21.656Z,99.99
2018-01-21T07:23:21.641Z,99.99
2018-01-21T07:24:21.626Z,99.99
2018-01-21T07:25:21.610Z,99.99
2018-01-21T07:26:21.593Z,99.99
2018-01-21T07:27:21.577Z,99.99
2018-01-21T07:28:21.563Z,99.99
2018-01-21T07:29:21.546Z,99.99
2018-01-21T07:30:21.530Z,99.99
2018-01-21T07:31:21.519Z,99.99
2018-01-21T07:32:21.500Z,99.99
2018-01-21T07:33:21.484Z,99.99
2018-01-21T07:34:21.501Z,99.99
2018-01-21T07:35:21.454Z,99.99
2018-01-21T07:36:21.437Z,99.99
2018-01-21T07:37:21.421Z,99.99
2018-01-21T07:38:21.406Z,99.99
2018-01-21T07:39:21.390Z,99.99
2018-01-21T07:40:21.379Z,99.99
2018-01-21T07:41:21.359Z,99.99
2018-01-21T07:42:21.343Z,99.99
2018-01-21T07:43:21.327Z,99.99
2018-01-21T07:44:21.313Z,99.99
2018-01-21T07:45:21.296Z,99.99
2018-01-21T07:46:21.281Z,99.99
2018-01-21T07:47:21.266Z,99.99
2018-01-21T07:48:21.251Z,99.99
2018-01-21T07:49:21.234Z,99.99
2018-01-21T07:50:21.220Z,99.99
2018-01-21T07:51:21.204Z,99.99
2018-01-21T07:52:21.188Z,99.99
2018-01-21T07:53:21.174Z,99.99
2018-01-21T07:54:21.161Z,99.99
2018-01-21T07:55:21.142Z,99.99
2018-01-21T07:56:21.127Z,99.99
2018-01-21T07:57:21.112Z,99.99
2018-01-21T07:58:21.095Z,99.99
2018-01-21T07:59:21.081Z,99.99
2018-01-21T08:00:21.065Z,99.99
2018-01-21T08:01:21.049Z,99.99
2018-01-21T08:02:21.033Z,99.99
2018-01-21T08:03:21.019Z,99.99
2018-01-21T08:04:21.004Z,99.99
2018-01-21T08:05:20.988Z,99.99
2018-01-21T08:06:20.973Z,99.99
2018-01-21T08:07:20.958Z,99.99
2018-01-21T08:08:20.942Z,99.99
2018-01-21T08:09:20.927Z,99.99
2018-01-21T08:10:20.913Z,99.99
2018-01-21T08:11:20.897Z,99.99
2018-01-21T08:12:20.882Z,99.99
2018-01-21T08:13:20.867Z,99.99
2018-01-21T08:14:20.854Z,99.99
2018-01-21T08:15:20.837Z,99.99
2018-01-21T08:16:20.822Z,99.99
2018-01-21T08:17:20.806Z,99.99
2018-01-21T08:18:20.791Z,99.99
2018-01-21T08:19:20.776Z,99.99
2018-01-21T08:20:20.761Z,99.99
2018-01-21T08:21:20.745Z,99.99
2018-01-21T08:22:20.730Z,99.99
2018-01-21T08:23:20.715Z,99.99
2018-01-21T08:24:20.700Z,99.99
2018-01-21T08:25:20.684Z,99.99
2018-01-21T08:26:20.670Z,99.99
2018-01-21T08:27:20.655Z,99.99
2018-01-21T08:28:20.641Z,99.99
2018-01-21T08:29:20.626Z,99.99
2018-01-21T08:30:20.611Z,99.99
2018-01-21T08:31:20.596Z,99.99
2018-01-21T08:32:20.582Z,99.99
2018-01-21T08:33:20.566Z,99.99
2018-01-21T08:34:20.553Z,99.99
2018-01-21T08:35:20.538Z,99.99
2018-01-21T08:36:20.524Z,99.99
2018-01-21T08:37:20.508Z,99.99
2018-01-21T08:38:20.496Z,99.99
2018-01-21T08:39:20.480Z,99.99
2018-01-21T08:40:20.466Z,99.99
2018-01-21T08:41:20.451Z,99.99
2018-01-21T08:42:20.435Z,99.99
2018-01-21T08:43:20.421Z,99.99
2018-01-21T08:44:20.408Z,99.99
2018-01-21T08:45:20.392Z,99.99
2018-01-21T08:46:20.378Z,99.99
2018-01-21T08:47:20.363Z,99.99
2018-01-21T08:48:20.350Z,99.99
2018-01-21T08:49:20.334Z,99.99
2018-01-21T08:50:20.320Z,99.99
2018-01-21T08:51:20.305Z,99.99
2018-01-21T08:52:20.292Z,99.99
2018-01-21T08:53:20.280Z,99.99
2018-01-21T08:54:20.263Z,99.99
2018-01-21T08:55:20.247Z,99.99
2018-01-21T08:56:20.233Z,99.99
2018-01-21T08:57:20.219Z,99.99
2018-01-21T08:58:20.207Z,99.99
2018-01-21T08:59:20.189Z,99.99
2018-01-21T09:00:20.175Z,99.99
2018-01-21T09:01:20.160Z,99.99
2018-01-21T09:02:20.146Z,99.99
2018-01-21T09:03:20.132Z,99.99
2018-01-21T09:04:20.117Z,99.99
2018-01-21T09:05:20.105Z,99.99
2018-01-21T09:06:20.088Z,99.99
2018-01-21T09:07:20.074Z,99.99
2018-01-21T09:08:20.060Z,99.99
2018-01-21T09:09:20.045Z,99.99
2018-01-21T09:10:20.031Z,99.99
2018-01-21T09:11:20.018Z,99.99
2018-01-21T09:12:20.003Z,99.99
2018-01-21T09:13:19.986Z,99.99
2018-01-21T09:14:19.973Z,99.99
2018-01-21T09:15:19.958Z,99.99
2018-01-21T09:16:19.944Z,99.99
2018-01-21T09:17:19.938Z,99.99
2018-01-21T09:18:19.915Z,99.99
2018-01-21T09:19:19.906Z,99.99
2018-01-21T09:20:19.891Z,99.99
2018-01-21T09:21:19.879Z,99.99
2018-01-21T09:22:19.859Z,99.99
2018-01-21T09:23:19.845Z,99.99
2018-01-21T09:24:19.831Z,99.99
2018-01-21T09:25:19.816Z,99.99
2018-01-21T09:26:19.805Z,99.99
2018-01-21T09:27:19.789Z,99.99
2018-01-21T09:28:19.775Z,99.99
2018-01-21T09:29:19.761Z,99.99
2018-01-21T09:30:19.747Z,99.99
2018-01-21T09:31:19.732Z,99.99
2018-01-21T09:32:19.720Z,99.99
2018-01-21T09:33:19.705Z,99.99
2018-01-21T09:34:19.691Z,99.99
2018-01-21T09:35:19.679Z,99.99
2018-01-21T09:36:19.664Z,99.99
2018-01-21T09:37:19.648Z,99.99
2018-01-21T09:38:19.634Z,99.99
2018-01-21T09:39:19.621Z,99.99
2018-01-21T09:40:19.606Z,99.99
2018-01-21T09:41:19.592Z,99.99
2018-01-21T09:42:19.579Z,99.99
2018-01-21T09:43:19.565Z,99.99
2018-01-21T09:44:19.550Z,99.99
2018-01-21T09:45:19.536Z,99.99
2018-01-21T09:46:19.522Z,99.99
2018-01-21T09:47:19.509Z,99.99
2018-01-21T09:48:19.495Z,99.99
2018-01-21T09:49:19.480Z,99.99
2018-01-21T09:50:19.467Z,99.99
2018-01-21T09:51:19.454Z,99.99
2018-01-21T09:52:19.444Z,99.99
2018-01-21T09:53:19.462Z,99.99
2018-01-21T09:54:19.413Z,99.99
2018-01-21T09:55:19.400Z,99.99
2018-01-21T09:56:19.386Z,99.99
2018-01-21T09:57:19.371Z,99.99
2018-01-21T09:58:19.358Z,99.99
2018-01-21T09:59:19.345Z,99.99
2018-01-21T10:00:19.332Z,99.99
2018-01-21T10:01:19.317Z,99.99
2018-01-21T10:02:19.304Z,99.99
2018-01-21T10:03:19.307Z,99.99
2018-01-21T10:04:19.278Z,99.99
2018-01-21T10:05:19.268Z,99.99
2018-01-21T10:06:19.251Z,99.99
2018-01-21T10:07:19.239Z,99.99
2018-01-21T10:08:19.224Z,99.99
2018-01-21T10:09:19.211Z,99.99
2018-01-21T10:10:19.197Z,99.99
2018-01-21T10:11:19.184Z,99.99
2018-01-21T10:12:19.172Z,99.99
2018-01-21T10:13:19.157Z,99.99
2018-01-21T10:14:19.145Z,99.99
2018-01-21T10:15:19.131Z,99.99
2018-01-21T10:16:19.120Z,99.99
2018-01-21T10:17:19.105Z,99.99
2018-01-21T10:18:19.093Z,99.99
2018-01-21T10:19:19.079Z,99.99
2018-01-21T10:20:19.066Z,99.99
2018-01-21T10:21:19.052Z,99.99
2018-01-21T10:22:19.047Z,99.99
2018-01-21T10:23:19.026Z,99.99
2018-01-21T10:24:19.014Z,99.99
2018-01-21T10:25:18.999Z,99.99
2018-01-21T10:26:18.987Z,99.99
2018-01-21T10:27:18.974Z,99.99
2018-01-21T10:28:18.961Z,99.99
2018-01-21T10:29:18.948Z,99.99
2018-01-21T10:30:18.934Z,99.99
2018-01-21T10:31:18.923Z,99.99
2018-01-21T10:32:18.910Z,99.99
2018-01-21T10:33:18.896Z,99.99
2018-01-21T10:34:18.883Z,99.99
2018-01-21T10:35:18.872Z,99.99
2018-01-21T10:36:18.861Z,99.99
2018-01-21T10:37:18.846Z,99.99
2018-01-21T10:38:18.840Z,99.99
2018-01-21T10:39:18.822Z,99.99
2018-01-21T10:40:18.811Z,99.99
2018-01-21T10:41:18.799Z,99.99
2018-01-21T10:42:18.795Z,99.96
2018-01-21T10:43:18.777Z,99.86
2018-01-21T10:44:18.766Z,99.34
2018-01-21T10:45:18.753Z,98.63
2018-01-21T10:46:18.744Z,98.96
2018-01-21T10:47:18.777Z,99.25
2018-01-21T10:48:18.723Z,97.83
2018-01-21T10:49:18.711Z,97.35
2018-01-21T10:50:18.701Z,97.45
2018-01-21T10:51:18.692Z,97.45
2018-01-21T10:52:18.681Z,97.92
2018-01-21T10:53:18.671Z,96.78
2018-01-21T10:54:18.662Z,95.84
2018-01-21T10:55:18.653Z,95.84
2018-01-21T10:56:18.643Z,96.78
2018-01-21T10:57:18.631Z,96.78
2018-01-21T10:58:18.621Z,96.97
2018-01-21T10:59:18.611Z,96.73
2018-01-21T11:00:18.600Z,97.02
2018-01-21T11:01:18.590Z,97.30
2018-01-21T11:02:18.579Z,98.54
2018-01-21T11:03:18.569Z,98.63
2018-01-21T11:04:18.557Z,98.63
2018-01-21T11:05:18.544Z,99.10
2018-01-21T11:06:18.533Z,99.01
2018-01-21T11:07:18.521Z,99.20
2018-01-21T11:08:18.510Z,99.10
2018-01-21T11:09:18.498Z,99.10
2018-01-21T11:10:18.486Z,99.77
2018-01-21T11:11:18.479Z,99.96
2018-01-21T11:12:18.463Z,99.96
2018-01-21T11:13:18.449Z,99.58
2018-01-21T11:14:18.437Z,99.86
2018-01-21T11:15:18.431Z,99.77
2018-01-21T11:16:18.414Z,99.20
2018-01-21T11:17:18.402Z,98.54
2018-01-21T11:18:18.390Z,97.92
2018-01-21T11:19:18.380Z,98.11
2018-01-21T11:20:18.369Z,97.83
2018-01-21T11:21:18.364Z,96.92
2018-01-21T11:22:18.347Z,95.88
2018-01-21T11:23:18.341Z,94.08
2018-01-21T11:24:18.328Z,95.12
2018-01-21T11:25:18.364Z,94.93
2018-01-21T11:26:18.308Z,95.50
2018-01-21T11:27:18.298Z,93.89
2018-01-21T11:28:18.297Z,93.51
2018-01-21T11:29:18.287Z,93.99
2018-01-21T11:30:18.270Z,93.32
2018-01-21T11:31:18.260Z,93.70
2018-01-21T11:32:18.252Z,93.13
2018-01-21T11:33:18.242Z,93.18
2018-01-21T11:34:18.233Z,91.99
2018-01-21T11:35:18.223Z,92.23
2018-01-21T11:36:18.215Z,91.47
2018-01-21T11:37:18.207Z,91.47
2018-01-21T11:38:18.196Z,92.04
2018-01-21T11:39:18.186Z,92.33
2018-01-21T11:40:18.177Z,91.52
2018-01-21T11:41:18.167Z,90.95
2018-01-21T11:42:18.158Z,91.42
2018-01-21T11:43:18.148Z,92.28
2018-01-21T11:44:18.149Z,93.13
2018-01-21T11:45:18.133Z,91.33
2018-01-21T11:46:18.120Z,92.85
2018-01-21T11:47:18.112Z,92.42
2018-01-21T11:48:18.102Z,91.38
2018-01-21T11:49:18.094Z,90.28
2018-01-21T11:50:18.089Z,88.06
2018-01-21T11:51:18.076Z,87.77
2018-01-21T11:52:18.068Z,88.15
2018-01-21T11:53:18.059Z,88.43
2018-01-21T11:54:18.051Z,89.86
2018-01-21T11:55:18.043Z,90.38
2018-01-21T11:56:18.034Z,88.95
2018-01-21T11:57:18.026Z,88.57
2018-01-21T11:58:18.018Z,89.10
2018-01-21T11:59:18.011Z,88.86
2018-01-21T12:00:18.019Z,88.48
2018-01-21T12:01:17.992Z,88.29
2018-01-21T12:02:17.984Z,87.82
2018-01-21T12:03:17.976Z,87.53
2018-01-21T12:04:17.968Z,87.53
2018-01-21T12:05:17.959Z,85.72
2018-01-21T12:06:17.951Z,86.82
2018-01-21T12:07:17.944Z,87.39
2018-01-21T12:08:17.935Z,88.34
2018-01-21T12:09:17.925Z,88.72
2018-01-21T12:10:17.917Z,88.01
2018-01-21T12:11:17.909Z,87.72
2018-01-21T12:12:17.900Z,88.39
2018-01-21T12:13:17.890Z,88.24
2018-01-21T12:14:17.882Z,87.01
2018-01-21T12:15:17.873Z,85.72
2018-01-21T12:16:17.865Z,85.91
2018-01-21T12:17:17.855Z,86.25
2018-01-21T12:18:17.889Z,86.72
2018-01-21T12:19:17.838Z,87.96
2018-01-21T12:20:17.836Z,89.39
2018-01-21T12:21:17.817Z,89.86
2018-01-21T12:22:17.810Z,89.06
2018-01-21T12:23:17.799Z,89.53
2018-01-21T12:24:17.789Z,91.14
2018-01-21T12:25:17.779Z,91.24
2018-01-21T12:26:17.769Z,90.57
2018-01-21T12:27:17.759Z,91.33
2018-01-21T12:28:17.749Z,91.66
2018-01-21T12:29:17.738Z,90.14
2018-01-21T12:30:17.729Z,89.58
2018-01-21T12:31:17.719Z,89.58
2018-01-21T12:32:17.710Z,89.95
2018-01-21T12:33:17.698Z,90.14
2018-01-21T12:34:17.688Z,90.52
2018-01-21T12:35:17.678Z,90.14
2018-01-21T12:36:17.670Z,90.05
2018-01-21T12:37:17.657Z,87.77
2018-01-21T12:38:17.647Z,89.00
2018-01-21T12:39:17.638Z,89.20
2018-01-21T12:40:17.629Z,89.10
2018-01-21T12:41:17.617Z,89.20
2018-01-21T12:42:17.607Z,89.58
2018-01-21T12:43:17.598Z,89.95
2018-01-21T12:44:17.588Z,90.05
2018-01-21T12:45:17.576Z,88.81
2018-01-21T12:46:17.566Z,89.15
2018-01-21T12:47:17.557Z,88.39
2018-01-21T12:48:17.547Z,89.72
2018-01-21T12:49:17.536Z,89.81
2018-01-21T12:50:17.529Z,90.00
2018-01-21T12:51:17.523Z,90.00
2018-01-21T12:52:17.506Z,90.38